»·PEaware :: N12A KSNA-KCRQ

N12A :: KSNA-KCRQ

FLIGHT INFORMATION

Flight Status: Arrived
Operator: Privately registered:
United States
More flights under this callsign
Pilot: Anonymous 33943 (33943)
Aircraft: SOCATA TBM-900
(TBM9)
More flights by this aircraft type
Origin: KSNA John Wayne-Orange Co
United States
Destination: KCRQ McClellan-Palomar
United States
More flights between these airports :: More routes between these airports
Route: V25 PACIF V208 OCN
File this flight plan on PilotEdge
Remarks:
Altitude:
(Current/Filed)
7,000ft
Speed:
(Current/Filed)
180kts
Departed: 11-Oct-21 08:00 AM
Arrived: 11-Oct-21 08:25 AM
Distance/Time
Traveled:
44nm/0:25
Distance/Time
To Go:
Arrived

Flight Plot

Page will automatically refresh every two minutes.


Map Options




Map Legend


Flown Route
Filed Route
Departure Airport
Arrival Airport
Navaid (VOR, NDB)
Fix

Horizontal Profiles

Position Reports

Time Latitude Longitude Heading Altitude Ground
Speed
11-Oct-21 07:13 33.676596 -117.870379 209 59ft 0kts
11-Oct-21 07:14 33.676596 -117.870379 209 59ft 0kts
11-Oct-21 07:15 33.676596 -117.870379 209 59ft 0kts
11-Oct-21 07:16 33.676596 -117.870379 209 59ft 0kts
11-Oct-21 07:17 33.676596 -117.870379 209 59ft 0kts
11-Oct-21 07:18 33.676596 -117.870379 209 59ft 0kts
11-Oct-21 07:19 33.676596 -117.870379 209 59ft 0kts
11-Oct-21 07:20 33.676596 -117.870379 209 59ft 0kts
11-Oct-21 07:21 33.676596 -117.870379 209 59ft 0kts
11-Oct-21 07:22 33.676596 -117.870379 209 59ft 0kts
11-Oct-21 07:23 33.676596 -117.870379 209 59ft 0kts
11-Oct-21 07:24 33.676596 -117.870379 209 59ft 0kts
11-Oct-21 07:25 33.676613 -117.870367 209 59ft 0kts
11-Oct-21 07:32 33.676598 -117.870377 209 59ft 0kts
11-Oct-21 07:33 33.676598 -117.870377 209 59ft 0kts
11-Oct-21 07:34 33.676597 -117.870377 209 59ft 0kts
11-Oct-21 07:35 33.676597 -117.870377 209 59ft 0kts
11-Oct-21 07:36 33.676597 -117.870377 209 59ft 0kts
11-Oct-21 07:37 33.676597 -117.870377 209 59ft 0kts
11-Oct-21 07:38 33.676597 -117.870377 209 59ft 0kts
11-Oct-21 07:39 33.676597 -117.870377 209 59ft 0kts
11-Oct-21 07:40 33.676597 -117.870377 209 59ft 0kts
11-Oct-21 07:41 33.676597 -117.870377 209 59ft 0kts
11-Oct-21 07:42 33.676597 -117.870377 209 59ft 0kts
11-Oct-21 07:45 33.676597 -117.870377 209 59ft 0kts
11-Oct-21 07:46 33.676597 -117.870377 209 59ft 0kts
11-Oct-21 07:47 33.676597 -117.870377 209 59ft 0kts
11-Oct-21 07:48 33.676597 -117.870377 209 59ft 0kts
11-Oct-21 07:49 33.676597 -117.870377 209 59ft 0kts
11-Oct-21 07:50 33.676597 -117.870377 209 59ft 0kts
11-Oct-21 07:51 33.676597 -117.870377 209 59ft 0kts
11-Oct-21 07:52 33.676597 -117.870377 209 59ft 0kts
11-Oct-21 07:53 33.676597 -117.870377 209 59ft 0kts
11-Oct-21 07:54 33.676439 -117.870036 37 59ft 15kts
11-Oct-21 07:55 33.681228 -117.866475 116 59ft 0kts
11-Oct-21 07:56 33.681228 -117.866475 116 59ft 0kts
11-Oct-21 07:57 33.681228 -117.866475 116 59ft 0kts
11-Oct-21 07:58 33.679591 -117.866270 210 59ft 39kts
11-Oct-21 07:59 33.652493 -117.876680 186 1181ft 115kts
11-Oct-21 08:00 33.621205 -117.881245 186 3062ft 113kts
11-Oct-21 08:01 33.587969 -117.886101 186 5056ft 137kts
11-Oct-21 08:02 33.546783 -117.892157 186 6979ft 163kts
11-Oct-21 08:03 33.491514 -117.900395 186 7010ft 222kts
11-Oct-21 08:04 33.432065 -117.892438 134 7015ft 229kts
11-Oct-21 08:05 33.383738 -117.841843 140 7000ft 229kts
11-Oct-21 08:06 33.339427 -117.799321 141 6990ft 190kts
11-Oct-21 08:07 33.299256 -117.760842 141 6997ft 181kts
11-Oct-21 08:08 33.279968 -117.709014 99 7000ft 179kts
11-Oct-21 08:09 33.271166 -117.650351 99 7000ft 179kts
11-Oct-21 08:10 33.262324 -117.591909 99 7000ft 179kts
11-Oct-21 08:11 33.254736 -117.533239 97 7000ft 179kts
11-Oct-21 08:12 33.247555 -117.474315 97 7000ft 179kts
11-Oct-21 08:13 33.225178 -117.426253 175 6549ft 198kts
11-Oct-21 08:14 33.202058 -117.480598 262 5359ft 189kts
11-Oct-21 08:15 33.196079 -117.536059 262 5118ft 179kts
11-Oct-21 08:16 33.172221 -117.558128 120 4472ft 142kts
11-Oct-21 08:17 33.151044 -117.505357 123 3665ft 196kts
11-Oct-21 08:18 33.124122 -117.457336 123 2480ft 150kts
11-Oct-21 08:19 33.106518 -117.415860 81 2117ft 124kts
11-Oct-21 08:20 33.113240 -117.372911 78 1650ft 103kts
11-Oct-21 08:21 33.118247 -117.341865 79 1380ft 114kts
11-Oct-21 08:22 33.123115 -117.311808 79 774ft 96kts
11-Oct-21 08:23 33.127905 -117.282173 79 312ft 66kts
11-Oct-21 08:24 33.127815 -117.278064 100 308ft 0kts

Navigation Log

Ident Type
Flight plan parsing failed, navigation log unavailable